createdAt,value
2023-04-11T00:00:32.419Z,1000.74
2023-04-11T00:01:32.519Z,1000.64
2023-04-11T00:02:32.484Z,1000.63
2023-04-11T00:03:32.457Z,1000.65
2023-04-11T00:04:32.422Z,1000.63
2023-04-11T00:05:32.377Z,1000.68
2023-04-11T00:06:32.357Z,1000.66
2023-04-11T00:07:32.326Z,1000.70
2023-04-11T00:08:32.294Z,1000.61
2023-04-11T00:09:32.278Z,1000.59
2023-04-11T00:10:32.322Z,1000.73
2023-04-11T00:11:32.244Z,1000.61
2023-04-11T00:12:32.271Z,1000.62
2023-04-11T00:13:32.227Z,1000.53
2023-04-11T00:14:32.260Z,1000.52
2023-04-11T00:15:32.224Z,1000.50
2023-04-11T00:16:32.246Z,1000.50
2023-04-11T00:17:32.222Z,1000.54
2023-04-11T00:18:32.176Z,1000.56
2023-04-11T00:19:32.194Z,1000.67
2023-04-11T00:20:32.171Z,1000.57
2023-04-11T00:21:32.206Z,1000.57
2023-04-11T00:22:32.194Z,1000.61
2023-04-11T00:23:32.119Z,1000.52
2023-04-11T00:24:32.158Z,1000.50
2023-04-11T00:25:32.124Z,1000.50
2023-04-11T00:26:32.168Z,1000.51
2023-04-11T00:27:32.101Z,1000.42
2023-04-11T00:28:32.083Z,1000.45
2023-04-11T00:29:32.097Z,1000.44
2023-04-11T00:30:32.071Z,1000.50
2023-04-11T00:31:32.093Z,1000.43
2023-04-11T00:32:32.101Z,1000.38
2023-04-11T00:33:32.055Z,1000.36
2023-04-11T00:34:32.006Z,1000.33
2023-04-11T00:35:32.097Z,1000.35
2023-04-11T00:36:32.108Z,1000.36
2023-04-11T00:37:31.984Z,1000.39
2023-04-11T00:38:31.951Z,1000.40
2023-04-11T00:39:32.601Z,1000.46
2023-04-11T00:40:31.928Z,1000.44
2023-04-11T00:41:32.641Z,1000.42
2023-04-11T00:42:31.890Z,1000.41
2023-04-11T00:43:31.885Z,1000.43
2023-04-11T00:44:31.950Z,1000.45
2023-04-11T00:45:31.932Z,1000.46
2023-04-11T00:46:31.883Z,1000.38
2023-04-11T00:47:31.957Z,1000.36
2023-04-11T00:48:31.829Z,1000.39
2023-04-11T00:49:31.853Z,1000.34
2023-04-11T00:50:32.603Z,1000.31
2023-04-11T00:51:31.883Z,1000.30
2023-04-11T00:52:31.776Z,1000.31
2023-04-11T00:53:31.900Z,1000.31
2023-04-11T00:54:31.866Z,1000.34
2023-04-11T00:55:32.721Z,1000.33
2023-04-11T00:56:32.341Z,1000.26
2023-04-11T00:57:31.944Z,1000.30
2023-04-11T00:58:31.713Z,1000.32
2023-04-11T00:59:31.774Z,1000.28
2023-04-11T01:00:31.690Z,1000.32
2023-04-11T01:01:31.717Z,1000.36
2023-04-11T01:02:31.731Z,1000.30
2023-04-11T01:03:31.959Z,1000.35
2023-04-11T01:04:31.637Z,1000.32
2023-04-11T01:05:31.693Z,1000.37
2023-04-11T01:06:31.627Z,1000.33
2023-04-11T01:07:31.612Z,1000.30
2023-04-11T01:08:31.588Z,1000.29
2023-04-11T01:09:31.588Z,1000.38
2023-04-11T01:10:31.570Z,1000.39
2023-04-11T01:11:31.589Z,1000.39
2023-04-11T01:12:31.548Z,1000.36
2023-04-11T01:13:31.542Z,1000.38
2023-04-11T01:14:31.532Z,1000.43
2023-04-11T01:15:31.547Z,1000.33
2023-04-11T01:16:31.526Z,1000.30
2023-04-11T01:17:31.552Z,1000.36
2023-04-11T01:18:31.477Z,1000.37
2023-04-11T01:19:31.473Z,1000.31
2023-04-11T01:20:31.458Z,1000.32
2023-04-11T01:21:31.471Z,1000.36
2023-04-11T01:22:31.448Z,1000.42
2023-04-11T01:23:31.586Z,1000.27
2023-04-11T01:24:31.413Z,1000.36
2023-04-11T01:25:31.430Z,1000.34
2023-04-11T01:26:31.411Z,1000.31
2023-04-11T01:27:31.386Z,1000.32
2023-04-11T01:28:31.376Z,1000.36
2023-04-11T01:29:31.357Z,1000.38
2023-04-11T01:30:31.374Z,1000.36
2023-04-11T01:31:31.359Z,1000.33
2023-04-11T01:32:31.365Z,1000.32
2023-04-11T01:33:31.364Z,1000.30
2023-04-11T01:34:31.323Z,1000.31
2023-04-11T01:35:31.346Z,1000.31
2023-04-11T01:36:31.320Z,1000.26
2023-04-11T01:37:31.273Z,1000.28
2023-04-11T01:38:31.255Z,1000.25
2023-04-11T01:39:31.256Z,1000.27
2023-04-11T01:40:31.232Z,1000.32
2023-04-11T01:41:31.226Z,1000.37
2023-04-11T01:42:31.238Z,1000.29
2023-04-11T01:43:31.208Z,1000.32
2023-04-11T01:44:31.192Z,1000.36
2023-04-11T01:45:31.176Z,1000.33
2023-04-11T01:46:31.227Z,1000.43
2023-04-11T01:47:31.210Z,1000.34
2023-04-11T01:48:31.243Z,1000.40
2023-04-11T01:49:31.145Z,1000.32
2023-04-11T01:50:31.121Z,1000.32
2023-04-11T01:51:31.119Z,1000.33
2023-04-11T01:52:31.093Z,1000.34
2023-04-11T01:53:31.112Z,1000.33
2023-04-11T01:54:31.077Z,1000.31
2023-04-11T01:55:31.064Z,1000.28
2023-04-11T01:56:31.081Z,1000.28
2023-04-11T01:57:31.071Z,1000.29
2023-04-11T01:58:31.030Z,1000.30
2023-04-11T01:59:31.041Z,1000.30
2023-04-11T02:00:31.005Z,1000.28
2023-04-11T02:01:31.043Z,1000.30
2023-04-11T02:02:31.045Z,1000.30
2023-04-11T02:03:30.998Z,1000.29
2023-04-11T02:04:30.980Z,1000.28
2023-04-11T02:05:30.952Z,1000.26
2023-04-11T02:06:30.940Z,1000.27
2023-04-11T02:07:30.934Z,1000.30
2023-04-11T02:08:30.933Z,1000.35
2023-04-11T02:09:30.904Z,1000.31
2023-04-11T02:10:30.919Z,1000.35
2023-04-11T02:11:30.901Z,1000.37
2023-04-11T02:12:30.875Z,1000.39
2023-04-11T02:13:30.881Z,1000.31
2023-04-11T02:14:30.840Z,1000.33
2023-04-11T02:15:30.939Z,1000.38
2023-04-11T02:16:30.842Z,1000.31
2023-04-11T02:17:30.855Z,1000.39
2023-04-11T02:18:30.799Z,1000.38
2023-04-11T02:19:30.800Z,1000.36
2023-04-11T02:20:30.776Z,1000.34
2023-04-11T02:21:30.805Z,1000.37
2023-04-11T02:22:30.761Z,1000.36
2023-04-11T02:23:30.755Z,1000.44
2023-04-11T02:24:30.738Z,1000.44
2023-04-11T02:25:30.743Z,1000.40
2023-04-11T02:26:30.704Z,1000.38
2023-04-11T02:27:30.731Z,1000.33
2023-04-11T02:28:30.689Z,1000.39
2023-04-11T02:29:30.678Z,1000.41
2023-04-11T02:30:30.658Z,1000.41
2023-04-11T02:31:30.717Z,1000.40
2023-04-11T02:32:30.684Z,1000.37
2023-04-11T02:33:30.633Z,1000.35
2023-04-11T02:34:30.626Z,1000.37
2023-04-11T02:35:30.641Z,1000.45
2023-04-11T02:36:30.601Z,1000.42
2023-04-11T02:37:30.615Z,1000.45
2023-04-11T02:38:30.598Z,1000.46
2023-04-11T02:39:30.563Z,1000.48
2023-04-11T02:40:30.552Z,1000.43
2023-04-11T02:41:30.541Z,1000.49
2023-04-11T02:42:30.533Z,1000.57
2023-04-11T02:43:30.524Z,1000.56
2023-04-11T02:44:30.524Z,1000.50
2023-04-11T02:45:30.496Z,1000.55
2023-04-11T02:46:30.493Z,1000.51
2023-04-11T02:47:30.503Z,1000.49
2023-04-11T02:48:30.464Z,1000.51
2023-04-11T02:49:30.491Z,1000.49
2023-04-11T02:50:30.427Z,1000.47
2023-04-11T02:51:30.433Z,1000.40
2023-04-11T02:52:30.453Z,1000.43
2023-04-11T02:53:30.409Z,1000.49
2023-04-11T02:54:30.399Z,1000.52
2023-04-11T02:55:30.411Z,1000.51
2023-04-11T02:56:30.365Z,1000.53
2023-04-11T02:57:30.367Z,1000.48
2023-04-11T02:58:30.352Z,1000.59
2023-04-11T02:59:30.337Z,1000.60
2023-04-11T03:00:30.349Z,1000.56
2023-04-11T03:01:30.337Z,1000.53
2023-04-11T03:02:30.511Z,1000.51
2023-04-11T03:03:30.320Z,1000.47
2023-04-11T03:04:30.306Z,1000.50
2023-04-11T03:05:30.281Z,1000.54
2023-04-11T03:06:30.266Z,1000.54
2023-04-11T03:07:30.248Z,1000.54
2023-04-11T03:08:30.230Z,1000.59
2023-04-11T03:09:30.221Z,1000.44
2023-04-11T03:10:30.209Z,1000.45
2023-04-11T03:11:30.226Z,1000.42
2023-04-11T03:12:30.179Z,1000.46
2023-04-11T03:13:30.178Z,1000.47
2023-04-11T03:14:30.168Z,1000.46
2023-04-11T03:15:30.166Z,1000.47
2023-04-11T03:16:30.215Z,1000.53
2023-04-11T03:17:30.182Z,1000.49
2023-04-11T03:18:30.114Z,1000.55
2023-04-11T03:19:30.142Z,1000.52
2023-04-11T03:20:30.095Z,1000.50
2023-04-11T03:21:30.086Z,1000.57
2023-04-11T03:22:30.097Z,1000.57
2023-04-11T03:23:30.070Z,1000.60
2023-04-11T03:24:30.049Z,1000.58
2023-04-11T03:25:30.038Z,1000.59
2023-04-11T03:26:30.042Z,1000.60
2023-04-11T03:27:30.026Z,1000.59
2023-04-11T03:28:30.080Z,1000.52
2023-04-11T03:29:29.995Z,1000.60
2023-04-11T03:30:29.988Z,1000.56
2023-04-11T03:31:29.995Z,1000.55
2023-04-11T03:32:30.073Z,1000.54
2023-04-11T03:33:29.955Z,1000.67
2023-04-11T03:34:29.991Z,1000.58
2023-04-11T03:35:29.949Z,1000.60
2023-04-11T03:36:29.947Z,1000.60
2023-04-11T03:37:29.909Z,1000.57
2023-04-11T03:38:29.898Z,1000.56
2023-04-11T03:39:29.892Z,1000.59
2023-04-11T03:40:29.910Z,1000.57
2023-04-11T03:41:29.867Z,1000.55
2023-04-11T03:42:29.848Z,1000.61
2023-04-11T03:43:29.855Z,1000.54
2023-04-11T03:44:29.832Z,1000.67
2023-04-11T03:45:29.825Z,1000.69
2023-04-11T03:46:29.879Z,1000.71
2023-04-11T03:47:29.840Z,1000.71
2023-04-11T03:48:29.789Z,1000.71
2023-04-11T03:49:29.769Z,1000.70
2023-04-11T03:50:29.770Z,1000.77
2023-04-11T03:51:29.762Z,1000.69
2023-04-11T03:52:29.767Z,1000.69
2023-04-11T03:53:29.726Z,1000.74
2023-04-11T03:54:29.714Z,1000.76
2023-04-11T03:55:29.719Z,1000.72
2023-04-11T03:56:29.687Z,1000.74
2023-04-11T03:57:29.717Z,1000.75
2023-04-11T03:58:29.665Z,1000.78
2023-04-11T03:59:29.671Z,1000.68
2023-04-11T04:00:29.645Z,1000.77
2023-04-11T04:01:29.644Z,1000.85
2023-04-11T04:02:29.746Z,1000.74
2023-04-11T04:03:29.919Z,1000.78
2023-04-11T04:04:29.648Z,1000.76
2023-04-11T04:05:29.594Z,1000.79
2023-04-11T04:06:29.573Z,1000.76
2023-04-11T04:07:29.575Z,1000.74
2023-04-11T04:08:30.097Z,1000.73
2023-04-11T04:09:29.541Z,1000.77
2023-04-11T04:10:29.531Z,1000.75
2023-04-11T04:11:29.529Z,1000.74
2023-04-11T04:12:29.502Z,1000.74
2023-04-11T04:13:29.498Z,1000.78
2023-04-11T04:14:29.519Z,1000.76
2023-04-11T04:15:29.476Z,1000.74
2023-04-11T04:16:29.497Z,1000.77
2023-04-11T04:17:29.505Z,1000.71
2023-04-11T04:18:29.440Z,1000.78
2023-04-11T04:19:29.463Z,1000.75
2023-04-11T04:20:29.418Z,1000.80
2023-04-11T04:21:29.404Z,1000.78
2023-04-11T04:22:29.387Z,1000.80
2023-04-11T04:23:29.387Z,1000.76
2023-04-11T04:24:29.366Z,1000.80
2023-04-11T04:25:29.371Z,1000.83
2023-04-11T04:26:29.346Z,1000.85
2023-04-11T04:27:29.350Z,1000.87
2023-04-11T04:28:29.319Z,1000.93
2023-04-11T04:29:29.329Z,1000.86
2023-04-11T04:30:29.326Z,1000.89
2023-04-11T04:31:29.334Z,1000.88
2023-04-11T04:32:29.315Z,1000.76
2023-04-11T04:33:29.268Z,1000.85
2023-04-11T04:34:29.319Z,1000.87
2023-04-11T04:35:29.275Z,1000.89
2023-04-11T04:36:29.257Z,1000.89
2023-04-11T04:37:29.242Z,1000.95
2023-04-11T04:38:29.206Z,1001.01
2023-04-11T04:39:29.201Z,1000.90
2023-04-11T04:40:29.199Z,1000.93
2023-04-11T04:41:29.206Z,1000.98
2023-04-11T04:42:29.170Z,1001.00
2023-04-11T04:43:29.155Z,1001.02
2023-04-11T04:44:29.169Z,1001.03
2023-04-11T04:45:29.183Z,1001.13
2023-04-11T04:46:29.123Z,1001.11
2023-04-11T04:47:29.155Z,1001.16
2023-04-11T04:48:29.095Z,1001.12
2023-04-11T04:49:29.099Z,1001.11
2023-04-11T04:50:29.070Z,1001.14
2023-04-11T04:51:29.074Z,1001.19
2023-04-11T04:52:29.075Z,1001.13
2023-04-11T04:53:29.035Z,1001.17
2023-04-11T04:54:29.033Z,1001.18
2023-04-11T04:55:29.027Z,1001.21
2023-04-11T04:56:29.003Z,1001.19
2023-04-11T04:57:29.004Z,1001.20
2023-04-11T04:58:29.024Z,1001.27
2023-04-11T04:59:28.997Z,1001.28
2023-04-11T05:00:28.963Z,1001.32
2023-04-11T05:01:28.981Z,1001.27
2023-04-11T05:02:29.138Z,1001.33
2023-04-11T05:03:29.114Z,1001.32
2023-04-11T05:04:28.970Z,1001.39
2023-04-11T05:05:28.942Z,1001.41
2023-04-11T05:06:28.890Z,1001.54
2023-04-11T05:07:28.910Z,1001.49
2023-04-11T05:08:28.880Z,1001.45
2023-04-11T05:09:28.861Z,1001.47
2023-04-11T05:10:29.294Z,1001.59
2023-04-11T05:11:28.850Z,1001.65
2023-04-11T05:12:28.820Z,1001.68
2023-04-11T05:13:28.870Z,1001.60
2023-04-11T05:14:28.797Z,1001.63
2023-04-11T05:15:28.795Z,1001.71
2023-04-11T05:16:28.863Z,1001.78
2023-04-11T05:17:28.824Z,1001.78
2023-04-11T05:18:28.768Z,1001.73
2023-04-11T05:19:28.793Z,1001.81
2023-04-11T05:20:28.739Z,1001.71
2023-04-11T05:21:28.761Z,1001.72
2023-04-11T05:22:28.710Z,1001.67
2023-04-11T05:23:28.740Z,1001.76
2023-04-11T05:24:28.699Z,1001.81
2023-04-11T05:25:28.692Z,1001.80
2023-04-11T05:26:28.685Z,1001.78
2023-04-11T05:27:28.683Z,1001.76
2023-04-11T05:28:28.649Z,1001.76
2023-04-11T05:29:28.719Z,1001.75
2023-04-11T05:30:28.652Z,1001.68
2023-04-11T05:31:28.633Z,1001.75
2023-04-11T05:32:28.661Z,1001.77
2023-04-11T05:33:28.597Z,1001.80
2023-04-11T05:34:28.567Z,1001.78
2023-04-11T05:35:28.598Z,1001.85
2023-04-11T05:36:28.542Z,1001.83
2023-04-11T05:37:28.541Z,1001.82
2023-04-11T05:38:28.551Z,1001.84
2023-04-11T05:39:28.518Z,1001.84
2023-04-11T05:40:28.505Z,1001.83
2023-04-11T05:41:28.498Z,1001.90
2023-04-11T05:42:28.485Z,1001.98
2023-04-11T05:43:29.691Z,1001.96
2023-04-11T05:46:33.659Z,1001.94
2023-04-11T05:47:34.540Z,1001.86
2023-04-11T05:48:34.516Z,1001.93
2023-04-11T05:49:34.524Z,1001.93
2023-04-11T05:50:34.504Z,1001.96
2023-04-11T05:51:34.478Z,1002.00
2023-04-11T05:52:34.478Z,1001.98
2023-04-11T05:53:34.465Z,1001.94
2023-04-11T05:54:34.448Z,1001.90
2023-04-11T05:55:34.452Z,1001.91
2023-04-11T05:56:34.426Z,1001.97
2023-04-11T05:57:34.421Z,1001.96
2023-04-11T05:58:34.404Z,1001.94
2023-04-11T05:59:34.384Z,1002.01
2023-04-11T06:00:34.401Z,1002.05
2023-04-11T06:01:34.393Z,1002.02
2023-04-11T06:02:34.493Z,1002.04
2023-04-11T06:03:34.469Z,1002.13
2023-04-11T06:04:34.615Z,1002.15
2023-04-11T06:05:34.316Z,1002.14
2023-04-11T06:06:34.337Z,1002.21
2023-04-11T06:07:34.296Z,1002.25
2023-04-11T06:08:34.308Z,1002.20
2023-04-11T06:09:34.342Z,1002.26
2023-04-11T06:10:34.283Z,1002.20
2023-04-11T06:11:34.278Z,1002.25
2023-04-11T06:12:34.250Z,1002.23
2023-04-11T06:13:34.241Z,1002.19
2023-04-11T06:14:34.228Z,1002.20
2023-04-11T06:15:34.292Z,1002.23
2023-04-11T06:16:34.230Z,1002.25
2023-04-11T06:17:34.221Z,1002.22
2023-04-11T06:18:34.191Z,1002.22
2023-04-11T06:19:34.180Z,1002.26
2023-04-11T06:20:34.168Z,1002.25
2023-04-11T06:21:34.153Z,1002.27
2023-04-11T06:22:34.163Z,1002.30
2023-04-11T06:23:34.120Z,1002.28
2023-04-11T06:24:34.122Z,1002.28
2023-04-11T06:25:34.099Z,1002.23
2023-04-11T06:26:34.093Z,1002.23
2023-04-11T06:27:34.087Z,1002.31
2023-04-11T06:28:34.098Z,1002.31
2023-04-11T06:29:34.058Z,1002.28
2023-04-11T06:30:34.042Z,1002.33
2023-04-11T06:31:34.189Z,1002.31
2023-04-11T06:32:34.076Z,1002.33
2023-04-11T06:33:34.032Z,1002.35
2023-04-11T06:34:34.052Z,1002.38
2023-04-11T06:35:34.048Z,1002.37
2023-04-11T06:36:34.026Z,1002.30
2023-04-11T06:37:33.974Z,1002.30
2023-04-11T06:38:33.981Z,1002.30
2023-04-11T06:39:34.009Z,1002.32
2023-04-11T06:40:33.972Z,1002.36
2023-04-11T06:41:33.926Z,1002.32
2023-04-11T06:42:33.958Z,1002.30
2023-04-11T06:43:33.936Z,1002.28
2023-04-11T06:44:33.926Z,1002.25
2023-04-11T06:45:33.906Z,1002.20
2023-04-11T06:46:33.875Z,1002.22
2023-04-11T06:47:33.908Z,1002.42
2023-04-11T06:48:33.860Z,1002.47
2023-04-11T06:49:33.880Z,1002.43
2023-04-11T06:50:33.827Z,1002.50
2023-04-11T06:51:33.828Z,1002.60
2023-04-11T06:52:33.830Z,1002.52
2023-04-11T06:53:33.794Z,1002.53
2023-04-11T06:54:33.791Z,1002.49
2023-04-11T06:55:33.779Z,1002.51
2023-04-11T06:56:33.796Z,1002.57
2023-04-11T06:57:33.742Z,1002.53
2023-04-11T06:58:33.745Z,1002.55
2023-04-11T06:59:33.729Z,1002.61
2023-04-11T07:00:33.720Z,1002.62
2023-04-11T07:01:33.749Z,1002.56
2023-04-11T07:02:33.958Z,1002.59
2023-04-11T07:03:33.789Z,1002.64
2023-04-11T07:04:33.807Z,1002.59
2023-04-11T07:05:33.656Z,1002.62
2023-04-11T07:06:33.700Z,1002.67
2023-04-11T07:07:33.637Z,1002.76
2023-04-11T07:08:33.662Z,1002.70
2023-04-11T07:09:33.616Z,1002.67
2023-04-11T07:10:33.646Z,1002.75
2023-04-11T07:11:33.586Z,1002.74
2023-04-11T07:12:33.588Z,1002.77
2023-04-11T07:13:33.567Z,1002.71
2023-04-11T07:14:33.585Z,1002.77
2023-04-11T07:15:33.550Z,1002.76
2023-04-11T07:16:33.593Z,1002.77
2023-04-11T07:17:33.636Z,1002.80
2023-04-11T07:18:33.540Z,1002.89
2023-04-11T07:19:33.552Z,1002.88
2023-04-11T07:20:33.514Z,1002.83
2023-04-11T07:21:33.509Z,1002.92
2023-04-11T07:22:33.466Z,1002.88
2023-04-11T07:23:33.470Z,1002.95
2023-04-11T07:24:33.445Z,1002.92
2023-04-11T07:25:33.465Z,1002.94
2023-04-11T07:26:33.425Z,1002.97
2023-04-11T07:27:33.418Z,1002.94
2023-04-11T07:28:33.396Z,1002.94
2023-04-11T07:29:33.399Z,1003.00
2023-04-11T07:30:33.443Z,1003.09
2023-04-11T07:31:33.403Z,1003.12
2023-04-11T07:32:33.415Z,1003.05
2023-04-11T07:33:33.336Z,1003.06
2023-04-11T07:34:33.356Z,1003.11
2023-04-11T07:35:33.364Z,1003.13
2023-04-11T07:36:33.376Z,1003.19
2023-04-11T07:37:33.293Z,1003.17
2023-04-11T07:38:33.318Z,1003.15
2023-04-11T07:39:33.285Z,1003.13
2023-04-11T07:40:33.262Z,1003.21
2023-04-11T07:41:33.292Z,1003.22
2023-04-11T07:42:33.258Z,1003.19
2023-04-11T07:43:33.245Z,1003.14
2023-04-11T07:44:33.224Z,1003.20
2023-04-11T07:45:33.281Z,1003.21
2023-04-11T07:46:33.203Z,1003.16
2023-04-11T07:47:33.277Z,1003.09
2023-04-11T07:48:33.181Z,1003.15
2023-04-11T07:49:33.170Z,1003.24
2023-04-11T07:50:33.154Z,1003.22
2023-04-11T07:51:33.148Z,1003.22
2023-04-11T07:52:33.147Z,1003.22
2023-04-11T07:53:33.186Z,1003.31
2023-04-11T07:54:33.126Z,1003.20
2023-04-11T07:55:33.101Z,1003.31
2023-04-11T07:56:33.099Z,1003.22
2023-04-11T07:57:33.072Z,1003.22
2023-04-11T07:58:33.073Z,1003.30
2023-04-11T07:59:33.077Z,1003.36
2023-04-11T08:00:33.055Z,1003.33
2023-04-11T08:01:33.047Z,1003.27
2023-04-11T08:02:33.424Z,1003.38
2023-04-11T08:03:33.182Z,1003.40
2023-04-11T08:04:33.156Z,1003.38
2023-04-11T08:05:33.036Z,1003.42
2023-04-11T08:06:32.980Z,1003.37
2023-04-11T08:07:32.963Z,1003.41
2023-04-11T08:08:32.954Z,1003.42
2023-04-11T08:09:32.943Z,1003.45
2023-04-11T08:10:32.937Z,1003.48
2023-04-11T08:11:32.941Z,1003.42
2023-04-11T08:12:32.918Z,1003.40
2023-04-11T08:13:32.889Z,1003.44
2023-04-11T08:14:32.915Z,1003.50
2023-04-11T08:15:32.887Z,1003.42
2023-04-11T08:16:32.923Z,1003.49
2023-04-11T08:17:33.121Z,1003.47
2023-04-11T08:18:32.842Z,1003.49
2023-04-11T08:19:32.829Z,1003.56
2023-04-11T08:20:32.817Z,1003.48
2023-04-11T08:21:32.812Z,1003.45
2023-04-11T08:22:32.851Z,1003.48
2023-04-11T08:23:32.792Z,1003.45
2023-04-11T08:24:32.784Z,1003.33
2023-04-11T08:25:32.760Z,1003.52
2023-04-11T08:26:32.752Z,1003.48
2023-04-11T08:27:32.747Z,1003.56
2023-04-11T08:28:32.761Z,1003.62
2023-04-11T08:29:32.744Z,1003.56
2023-04-11T08:30:32.731Z,1003.56
2023-04-11T08:31:32.696Z,1003.60
2023-04-11T08:32:32.730Z,1003.53
2023-04-11T08:33:32.667Z,1003.56
2023-04-11T08:34:32.715Z,1003.51
2023-04-11T08:35:32.680Z,1003.52
2023-04-11T08:36:32.659Z,1003.52
2023-04-11T08:37:32.643Z,1003.60
2023-04-11T08:38:32.633Z,1003.55
2023-04-11T08:39:32.606Z,1003.67
2023-04-11T08:40:32.648Z,1003.56
2023-04-11T08:41:32.590Z,1003.65
2023-04-11T08:42:32.574Z,1003.65
2023-04-11T08:43:32.560Z,1003.66
2023-04-11T08:44:32.554Z,1003.69
2023-04-11T08:45:32.544Z,1003.64
2023-04-11T08:46:32.584Z,1003.61
2023-04-11T08:47:32.543Z,1003.68
2023-04-11T08:48:32.572Z,1003.72
2023-04-11T08:49:32.494Z,1003.71
2023-04-11T08:50:32.492Z,1003.72
2023-04-11T08:51:32.471Z,1003.76
2023-04-11T08:52:32.537Z,1003.74
2023-04-11T08:53:32.451Z,1003.73
2023-04-11T08:54:32.453Z,1003.67
2023-04-11T08:55:32.428Z,1003.75
2023-04-11T08:56:32.416Z,1003.62
2023-04-11T08:57:32.427Z,1003.57
2023-04-11T08:58:32.429Z,1003.71
2023-04-11T08:59:32.382Z,1003.60
2023-04-11T09:00:32.634Z,1003.62
2023-04-11T09:01:32.702Z,1003.60
2023-04-11T09:02:32.402Z,1003.61
2023-04-11T09:03:32.395Z,1003.56
2023-04-11T09:04:32.316Z,1003.60
2023-04-11T09:05:32.309Z,1003.61
2023-04-11T09:06:32.304Z,1003.56
2023-04-11T09:07:32.304Z,1003.51
2023-04-11T09:08:32.281Z,1003.58
2023-04-11T09:09:32.284Z,1003.61
2023-04-11T09:10:32.263Z,1003.57
2023-04-11T09:11:32.336Z,1003.58
2023-04-11T09:12:32.239Z,1003.59
2023-04-11T09:13:32.224Z,1003.70
2023-04-11T09:14:32.619Z,1003.69
2023-04-11T09:15:32.228Z,1003.68
2023-04-11T09:16:32.201Z,1003.72
2023-04-11T09:17:32.214Z,1003.64
2023-04-11T09:18:32.173Z,1003.71
2023-04-11T09:19:32.159Z,1003.63
2023-04-11T09:20:32.168Z,1003.76
2023-04-11T09:21:32.496Z,1003.73
2023-04-11T09:22:32.120Z,1003.69
2023-04-11T09:23:32.109Z,1003.65
2023-04-11T09:24:34.006Z,1003.63
2023-04-11T09:25:32.117Z,1003.58
2023-04-11T09:26:32.077Z,1003.64
2023-04-11T09:27:32.067Z,1003.60
2023-04-11T09:28:32.056Z,1003.55
2023-04-11T09:29:32.050Z,1003.52
2023-04-11T09:30:32.051Z,1003.57
2023-04-11T09:31:32.060Z,1003.55
2023-04-11T09:32:34.641Z,1003.62
2023-04-11T09:33:32.012Z,1003.66
2023-04-11T09:34:31.988Z,1003.62
2023-04-11T09:35:32.049Z,1003.61
2023-04-11T09:36:31.977Z,1003.60
2023-04-11T09:37:31.954Z,1003.67
2023-04-11T09:38:31.973Z,1003.65
2023-04-11T09:39:31.936Z,1003.72
2023-04-11T09:40:31.972Z,1003.66
2023-04-11T09:41:31.912Z,1003.63
2023-04-11T09:42:31.899Z,1003.62
2023-04-11T09:43:31.899Z,1003.65
2023-04-11T09:44:31.875Z,1003.66
2023-04-11T09:45:38.117Z,1003.66
2023-04-11T09:46:31.887Z,1003.73
2023-04-11T09:47:31.895Z,1003.83
2023-04-11T09:48:45.511Z,1003.70
2023-04-11T09:49:31.854Z,1003.78
2023-04-11T09:50:31.824Z,1003.72
2023-04-11T09:51:35.959Z,1003.77
2023-04-11T09:52:31.795Z,1003.79
2023-04-11T09:53:31.773Z,1003.71
2023-04-11T09:54:31.757Z,1003.79
2023-04-11T09:55:31.780Z,1003.70
2023-04-11T09:56:31.785Z,1003.77
2023-04-11T09:57:31.734Z,1003.81
2023-04-11T09:58:31.718Z,1003.69
2023-04-11T09:59:31.709Z,1003.65
2023-04-11T10:00:31.723Z,1003.70
2023-04-11T10:01:31.707Z,1003.66
2023-04-11T10:02:31.803Z,1003.70
2023-04-11T10:03:31.677Z,1003.71
2023-04-11T10:04:31.688Z,1003.70
2023-04-11T10:05:31.678Z,1003.80
2023-04-11T10:06:31.932Z,1003.67
2023-04-11T10:07:31.625Z,1003.74
2023-04-11T10:08:31.601Z,1003.88
2023-04-11T10:09:31.607Z,1003.76
2023-04-11T10:10:31.653Z,1003.74
2023-04-11T10:11:31.582Z,1003.78
2023-04-11T10:12:31.582Z,1003.68
2023-04-11T10:13:31.549Z,1003.70
2023-04-11T10:14:31.552Z,1003.73
2023-04-11T10:15:31.552Z,1003.76
2023-04-11T10:16:31.542Z,1003.81
2023-04-11T10:17:31.534Z,1003.78
2023-04-11T10:18:31.496Z,1003.74
2023-04-11T10:19:31.495Z,1003.78
2023-04-11T10:20:31.500Z,1003.71
2023-04-11T10:21:31.460Z,1003.73
2023-04-11T10:22:31.444Z,1003.69
2023-04-11T10:23:31.446Z,1003.78
2023-04-11T10:24:31.429Z,1003.61
2023-04-11T10:25:31.453Z,1003.67
2023-04-11T10:26:31.411Z,1003.68
2023-04-11T10:27:31.399Z,1003.68
2023-04-11T10:28:31.379Z,1003.70
2023-04-11T10:29:31.395Z,1003.75
2023-04-11T10:30:31.381Z,1003.77
2023-04-11T10:31:31.457Z,1003.82
2023-04-11T10:32:31.382Z,1003.76
2023-04-11T10:33:31.348Z,1003.57
2023-04-11T10:34:31.323Z,1003.74
2023-04-11T10:35:31.357Z,1003.66
2023-04-11T10:36:31.294Z,1003.86
2023-04-11T10:37:31.292Z,1003.71
2023-04-11T10:38:31.274Z,1003.80
2023-04-11T10:39:31.270Z,1003.79
2023-04-11T10:40:31.281Z,1003.82
2023-04-11T10:41:31.250Z,1003.89
2023-04-11T10:42:31.227Z,1003.74
2023-04-11T10:43:31.248Z,1003.84
2023-04-11T10:44:31.205Z,1003.86
2023-04-11T10:45:31.221Z,1003.87
2023-04-11T10:46:31.231Z,1003.81
2023-04-11T10:47:31.220Z,1003.95
2023-04-11T10:48:31.158Z,1003.94
2023-04-11T10:49:31.154Z,1003.91
2023-04-11T10:50:31.158Z,1003.93
2023-04-11T10:51:31.134Z,1003.99
2023-04-11T10:52:31.113Z,1003.83
2023-04-11T10:53:31.110Z,1003.89
2023-04-11T10:54:31.109Z,1003.81
2023-04-11T10:55:31.103Z,1003.78
2023-04-11T10:56:31.073Z,1003.85
2023-04-11T10:57:31.059Z,1003.88
2023-04-11T10:58:31.053Z,1003.89
2023-04-11T10:59:31.066Z,1003.93
2023-04-11T11:00:32.649Z,1003.86
2023-04-11T11:01:37.161Z,1003.94
2023-04-11T11:02:31.130Z,1003.94
2023-04-11T11:03:31.133Z,1003.98
2023-04-11T11:04:31.023Z,1003.94
2023-04-11T11:05:30.985Z,1003.87
2023-04-11T11:06:30.953Z,1003.92
2023-04-11T11:07:30.951Z,1003.91
2023-04-11T11:08:30.955Z,1003.92
2023-04-11T11:09:30.927Z,1003.80
2023-04-11T11:10:30.923Z,1003.84
2023-04-11T11:11:30.900Z,1003.83
2023-04-11T11:12:30.880Z,1003.82
2023-04-11T11:13:30.882Z,1003.88
2023-04-11T11:14:30.859Z,1003.88
2023-04-11T11:15:30.874Z,1003.92
2023-04-11T11:16:30.854Z,1003.90
2023-04-11T11:17:30.878Z,1003.96
2023-04-11T11:18:30.819Z,1003.94
2023-04-11T11:19:30.811Z,1003.95
2023-04-11T11:20:30.810Z,1003.96
2023-04-11T11:21:30.784Z,1003.97
2023-04-11T11:22:30.781Z,1003.88
2023-04-11T11:23:30.765Z,1004.01
2023-04-11T11:24:30.761Z,1003.92
2023-04-11T11:25:30.763Z,1004.01
2023-04-11T11:26:30.728Z,1003.98
2023-04-11T11:27:30.717Z,1003.99
2023-04-11T11:28:30.707Z,1003.91
2023-04-11T11:29:30.693Z,1003.97
2023-04-11T11:30:30.714Z,1003.98
2023-04-11T11:31:30.698Z,1003.95
2023-04-11T11:32:30.677Z,1003.99
2023-04-11T11:33:30.667Z,1003.88
2023-04-11T11:34:30.640Z,1003.86
2023-04-11T11:35:30.660Z,1003.86
2023-04-11T11:36:30.623Z,1004.03
2023-04-11T11:37:30.609Z,1003.99
2023-04-11T11:38:30.613Z,1003.99
2023-04-11T11:39:30.582Z,1003.81
2023-04-11T11:40:30.593Z,1004.05
2023-04-11T11:41:30.558Z,1003.97
2023-04-11T11:42:30.561Z,1003.95
2023-04-11T11:43:30.534Z,1004.01
2023-04-11T11:44:30.525Z,1003.98
2023-04-11T11:45:30.548Z,1003.87
2023-04-11T11:46:30.551Z,1003.94
2023-04-11T11:47:30.522Z,1004.02
2023-04-11T11:48:30.471Z,1004.08
2023-04-11T11:49:30.467Z,1004.09
2023-04-11T11:50:30.474Z,1004.11
2023-04-11T11:51:30.453Z,1004.06
2023-04-11T11:52:30.433Z,1004.08
2023-04-11T11:53:30.428Z,1004.10
2023-04-11T11:54:30.411Z,1004.08
2023-04-11T11:55:30.421Z,1004.07
2023-04-11T11:56:30.395Z,1004.17
2023-04-11T11:57:30.377Z,1004.16
2023-04-11T11:58:30.380Z,1004.11
2023-04-11T11:59:30.358Z,1004.10
2023-04-11T12:00:30.372Z,1004.11
2023-04-11T12:01:30.338Z,1004.14
2023-04-11T12:02:30.500Z,1004.14
2023-04-11T12:03:30.445Z,1004.17
2023-04-11T12:04:30.539Z,1004.15
2023-04-11T12:05:30.914Z,1004.06
2023-04-11T12:06:30.276Z,1004.12
2023-04-11T12:07:30.269Z,1004.14